createdAt,value
2023-11-12T00:00:20.586Z,67.03
2023-11-12T00:03:08.530Z,70.78
2023-11-12T00:05:36.062Z,70.47
2023-11-12T00:08:04.087Z,87.57
2023-11-12T00:10:32.454Z,76.50
2023-11-12T00:13:00.587Z,83.80
2023-11-12T00:15:28.439Z,67.22
2023-11-12T00:17:56.471Z,66.90
2023-11-12T00:20:26.853Z,64.85
2023-11-12T00:22:56.089Z,67.05
2023-11-12T00:25:25.841Z,69.18
2023-11-12T00:27:55.484Z,66.68
2023-11-12T00:30:24.442Z,67.95
2023-11-12T00:32:53.847Z,68.40
2023-11-12T00:35:21.397Z,70.47
2023-11-12T00:37:49.168Z,69.70
2023-11-12T00:40:17.665Z,66.85
2023-11-12T00:42:45.380Z,67.65
2023-11-12T00:45:14.394Z,63.30
2023-11-12T00:47:43.665Z,66.05
2023-11-12T00:50:13.227Z,65.57
2023-11-12T00:52:44.093Z,67.18
2023-11-12T00:55:12.765Z,65.68
2023-11-12T00:57:40.436Z,62.95
2023-11-12T01:00:08.777Z,62.83
2023-11-12T01:02:37.081Z,66.88
2023-11-12T01:05:06.271Z,64.55
2023-11-12T01:07:34.194Z,67.55
2023-11-12T01:10:02.081Z,66.72
2023-11-12T01:12:30.839Z,68.63
2023-11-12T01:14:58.541Z,73.40
2023-11-12T01:17:26.455Z,78.82
2023-11-12T01:19:54.017Z,77.75
2023-11-12T01:22:23.255Z,74.65
2023-11-12T01:24:51.039Z,73.43
2023-11-12T01:27:18.727Z,75.00
2023-11-12T01:29:46.782Z,68.72
2023-11-12T01:32:15.283Z,68.10
2023-11-12T01:34:42.638Z,68.05
2023-11-12T01:37:10.235Z,70.40
2023-11-12T01:39:38.450Z,70.63
2023-11-12T01:42:12.965Z,66.13
2023-11-12T01:44:40.969Z,64.75
2023-11-12T01:47:13.473Z,65.28
2023-11-12T01:49:41.850Z,63.20
2023-11-12T01:52:12.690Z,62.88
2023-11-12T01:54:42.567Z,63.00
2023-11-12T01:57:12.956Z,66.95
2023-11-12T01:59:40.543Z,65.55
2023-11-12T02:02:09.199Z,66.65
2023-11-12T02:04:37.274Z,61.60
2023-11-12T02:07:06.314Z,61.53
2023-11-12T02:09:34.393Z,61.75
2023-11-12T02:12:02.344Z,60.28
2023-11-12T02:14:31.743Z,59.83
2023-11-12T02:17:00.689Z,58.58
2023-11-12T02:19:30.476Z,57.38
2023-11-12T02:21:59.431Z,54.72
2023-11-12T02:24:27.026Z,57.50
2023-11-12T02:26:55.340Z,55.20
2023-11-12T02:29:23.551Z,56.10
2023-11-12T02:31:51.670Z,56.63
2023-11-12T02:34:19.538Z,55.42
2023-11-12T02:36:54.393Z,54.13
2023-11-12T02:39:22.274Z,58.08
2023-11-12T02:41:50.068Z,54.05
2023-11-12T02:44:17.748Z,57.95
2023-11-12T02:46:45.648Z,56.03
2023-11-12T02:49:54.785Z,56.50
2023-11-12T02:52:23.586Z,56.13
2023-11-12T02:54:51.119Z,54.58
2023-11-12T02:57:22.492Z,58.28
2023-11-12T02:59:50.870Z,54.85
2023-11-12T03:02:18.613Z,55.80
2023-11-12T03:04:47.931Z,52.67
2023-11-12T03:07:19.644Z,54.17
2023-11-12T03:09:48.551Z,56.10
2023-11-12T03:12:17.402Z,55.75
2023-11-12T03:14:45.010Z,56.83
2023-11-12T03:17:13.885Z,59.15
2023-11-12T03:19:41.652Z,58.70
2023-11-12T03:22:11.683Z,57.67
2023-11-12T03:24:39.718Z,58.65
2023-11-12T03:27:09.499Z,57.20
2023-11-12T03:29:37.004Z,61.45
2023-11-12T03:32:06.183Z,65.75
2023-11-12T03:34:33.643Z,62.38
2023-11-12T03:37:02.041Z,61.60
2023-11-12T03:39:29.541Z,63.13
2023-11-12T03:41:57.947Z,58.88
2023-11-12T03:44:25.450Z,60.88
2023-11-12T03:46:53.265Z,59.90
2023-11-12T03:49:21.138Z,57.80
2023-11-12T03:51:49.270Z,58.75
2023-11-12T03:54:17.822Z,58.38
2023-11-12T03:56:45.614Z,59.30
2023-11-12T03:59:13.156Z,59.85
2023-11-12T04:01:40.940Z,63.53
2023-11-12T04:04:08.725Z,61.67
2023-11-12T04:06:36.554Z,64.20
2023-11-12T04:09:04.748Z,59.28
2023-11-12T04:11:33.432Z,61.08
2023-11-12T04:14:00.909Z,63.88
2023-11-12T04:16:28.593Z,62.03
2023-11-12T04:18:57.123Z,59.58
2023-11-12T04:21:24.903Z,60.75
2023-11-12T04:23:52.354Z,58.15
2023-11-12T04:26:20.132Z,57.42
2023-11-12T04:28:48.870Z,57.80
2023-11-12T04:31:16.990Z,62.65
2023-11-12T04:33:44.658Z,61.38
2023-11-12T04:36:16.119Z,65.60
2023-11-12T04:38:43.838Z,63.40
2023-11-12T04:41:13.221Z,63.42
2023-11-12T04:43:41.523Z,63.95
2023-11-12T04:46:12.523Z,63.45
2023-11-12T04:48:40.867Z,65.80
2023-11-12T04:51:09.401Z,64.45
2023-11-12T04:53:38.874Z,68.43
2023-11-12T04:56:10.985Z,69.32
2023-11-12T04:58:39.684Z,69.05
2023-11-12T05:01:10.486Z,67.28
2023-11-12T05:03:38.111Z,69.32
2023-11-12T05:06:11.528Z,65.80
2023-11-12T05:08:39.970Z,71.28
2023-11-12T05:11:09.830Z,69.80
2023-11-12T05:13:38.337Z,67.97
2023-11-12T05:16:09.834Z,72.22
2023-11-12T05:18:37.267Z,72.28
2023-11-12T05:21:07.993Z,72.55
2023-11-12T05:23:35.425Z,71.13
2023-11-12T05:26:03.228Z,71.22
2023-11-12T05:28:31.209Z,68.07
2023-11-12T05:30:59.038Z,70.18
2023-11-12T05:33:27.538Z,69.70
2023-11-12T05:35:55.188Z,69.88
2023-11-12T05:38:22.767Z,68.35
2023-11-12T05:40:50.636Z,72.28
2023-11-12T05:43:18.069Z,70.97
2023-11-12T05:45:47.928Z,67.30
2023-11-12T05:48:16.367Z,66.60
2023-11-12T05:50:44.882Z,68.03
2023-11-12T05:53:12.622Z,67.75
2023-11-12T05:55:40.401Z,70.40
2023-11-12T05:58:08.839Z,71.25
2023-11-12T06:00:36.492Z,67.18
2023-11-12T06:03:04.093Z,72.35
2023-11-12T06:05:31.895Z,74.65
2023-11-12T06:07:59.369Z,76.57
2023-11-12T06:10:30.403Z,79.30
2023-11-12T06:12:58.445Z,81.05
2023-11-12T06:15:28.413Z,79.75
2023-11-12T06:17:57.658Z,79.32
2023-11-12T06:20:27.606Z,81.28
2023-11-12T06:22:57.957Z,84.93
2023-11-12T06:25:26.460Z,85.22
2023-11-12T06:27:54.429Z,80.57
2023-11-12T06:30:22.519Z,80.97
2023-11-12T06:32:49.982Z,83.13
2023-11-12T06:35:17.745Z,78.68
2023-11-12T06:37:45.620Z,76.85
2023-11-12T06:40:14.626Z,78.57
2023-11-12T06:42:43.861Z,81.28
2023-11-12T06:45:14.264Z,79.32
2023-11-12T06:47:41.946Z,80.97
2023-11-12T06:50:13.247Z,85.10
2023-11-12T06:52:40.723Z,81.70
2023-11-12T06:55:09.283Z,82.68
2023-11-12T06:57:36.841Z,82.97
2023-11-12T07:00:05.947Z,81.75
2023-11-12T07:02:35.155Z,83.90
2023-11-12T07:05:06.163Z,82.90
2023-11-12T07:07:34.337Z,85.60
2023-11-12T07:10:02.214Z,90.40
2023-11-12T07:12:31.800Z,90.70
2023-11-12T07:15:00.723Z,91.20
2023-11-12T07:17:28.398Z,95.53
2023-11-12T07:19:57.342Z,88.85
2023-11-12T07:22:25.540Z,91.05
2023-11-12T07:24:56.918Z,85.35
2023-11-12T07:27:25.191Z,84.55
2023-11-12T07:29:53.179Z,84.35
2023-11-12T07:32:22.186Z,85.90
2023-11-12T07:34:50.292Z,84.70
2023-11-12T07:37:17.853Z,88.10
2023-11-12T07:39:45.687Z,82.95
2023-11-12T07:42:13.266Z,83.05
2023-11-12T07:44:43.217Z,81.90
2023-11-12T07:47:10.784Z,79.13
2023-11-12T07:49:39.330Z,76.43
2023-11-12T07:52:07.148Z,78.28
2023-11-12T07:54:35.839Z,73.38
2023-11-12T07:57:03.732Z,68.32
2023-11-12T07:59:31.788Z,62.05
2023-11-12T08:01:59.316Z,56.75
2023-11-12T08:04:27.036Z,57.22
2023-11-12T08:06:54.532Z,56.10
2023-11-12T08:09:22.771Z,56.70
2023-11-12T08:11:50.344Z,52.65
2023-11-12T08:14:18.334Z,50.60
2023-11-12T08:16:45.829Z,51.92
2023-11-12T08:19:15.164Z,49.58
2023-11-12T08:21:43.022Z,48.40
2023-11-12T08:24:11.026Z,47.90
2023-11-12T08:26:41.110Z,47.83
2023-11-12T08:29:09.027Z,46.50
2023-11-12T08:31:37.530Z,44.75
2023-11-12T08:34:05.942Z,44.15
2023-11-12T08:36:33.520Z,44.13
2023-11-12T08:39:05.315Z,43.45
2023-11-12T08:41:33.437Z,43.77
2023-11-12T08:44:01.483Z,40.20
2023-11-12T08:46:29.625Z,40.35
2023-11-12T08:48:57.501Z,39.15
2023-11-12T08:51:25.946Z,39.65
2023-11-12T08:53:56.878Z,35.63
2023-11-12T08:56:24.737Z,41.78
2023-11-12T08:58:52.601Z,39.10
2023-11-12T09:01:20.034Z,36.80
2023-11-12T09:03:47.804Z,38.53
2023-11-12T09:06:15.569Z,42.95
2023-11-12T09:08:43.344Z,41.17
2023-11-12T09:11:14.931Z,41.10
2023-11-12T09:13:44.033Z,43.05
2023-11-12T09:16:12.322Z,45.95
2023-11-12T09:18:40.926Z,49.65
2023-11-12T09:21:08.484Z,47.78
2023-11-12T09:23:36.359Z,48.28
2023-11-12T09:26:04.179Z,53.65
2023-11-12T09:28:33.017Z,50.22
2023-11-12T09:31:01.045Z,50.35
2023-11-12T09:33:29.076Z,48.22
2023-11-12T09:35:56.717Z,48.45
2023-11-12T09:38:24.489Z,50.90
2023-11-12T09:40:54.832Z,50.05
2023-11-12T09:43:26.536Z,48.03
2023-11-12T09:45:57.602Z,46.53
2023-11-12T09:48:40.507Z,46.73
2023-11-12T09:51:09.930Z,44.30
2023-11-12T09:53:38.947Z,42.88
2023-11-12T09:56:10.732Z,47.53
2023-11-12T09:58:44.026Z,47.67
2023-11-12T10:01:15.187Z,60.60
2023-11-12T10:03:49.110Z,43.67
2023-11-12T10:06:18.234Z,40.10
2023-11-12T10:08:46.573Z,46.22
2023-11-12T10:11:17.469Z,43.47
2023-11-12T10:13:46.420Z,40.00
2023-11-12T10:16:32.869Z,39.28
2023-11-12T10:19:15.981Z,43.03
2023-11-12T10:22:37.163Z,37.88
2023-11-12T10:25:05.290Z,37.40
2023-11-12T10:27:33.156Z,38.20
2023-11-12T10:30:19.751Z,37.97
2023-11-12T10:32:48.661Z,40.10
2023-11-12T10:35:27.280Z,38.55
2023-11-12T10:38:03.596Z,39.38
2023-11-12T10:40:31.509Z,39.92
2023-11-12T10:43:10.792Z,36.25
2023-11-12T10:45:42.543Z,37.63
2023-11-12T10:48:12.828Z,34.00
2023-11-12T10:50:43.691Z,31.40
2023-11-12T10:53:11.712Z,33.40
2023-11-12T10:55:41.169Z,32.95
2023-11-12T10:58:10.960Z,35.03
2023-11-12T11:00:41.979Z,31.80
2023-11-12T11:03:10.434Z,34.22
2023-11-12T11:05:38.492Z,31.05
2023-11-12T11:08:06.488Z,30.17
2023-11-12T11:10:37.570Z,32.28
2023-11-12T11:13:05.255Z,32.80
2023-11-12T11:15:49.191Z,32.45
2023-11-12T11:18:37.581Z,30.83
2023-11-12T11:21:10.292Z,30.88
2023-11-12T11:23:46.061Z,30.15
2023-11-12T11:26:29.225Z,28.05
2023-11-12T11:29:06.145Z,28.67
2023-11-12T11:31:40.107Z,24.63
2023-11-12T11:34:09.096Z,27.42
2023-11-12T11:36:36.960Z,26.48
2023-11-12T11:39:18.494Z,22.38
2023-11-12T11:41:52.715Z,24.60
2023-11-12T11:44:46.834Z,27.70
2023-11-12T11:47:19.741Z,21.95
2023-11-12T11:49:50.353Z,21.42
2023-11-12T11:52:29.739Z,21.25
2023-11-12T11:54:58.400Z,24.73
2023-11-12T11:57:28.350Z,24.05
2023-11-12T11:59:59.693Z,21.42
2023-11-12T12:02:27.748Z,23.43
2023-11-12T12:05:00.122Z,21.30
2023-11-12T12:07:31.354Z,22.50
2023-11-12T12:10:01.244Z,25.58
2023-11-12T12:12:30.668Z,24.13
2023-11-12T12:14:58.079Z,22.02
2023-11-12T12:17:25.946Z,23.17
2023-11-12T12:19:54.638Z,24.35
2023-11-12T12:22:29.194Z,23.67
2023-11-12T12:24:59.478Z,25.23
2023-11-12T12:27:28.401Z,25.45
2023-11-12T12:29:56.393Z,24.83
2023-11-12T12:32:24.815Z,25.35
2023-11-12T12:34:59.690Z,22.88
2023-11-12T12:37:30.661Z,23.42
2023-11-12T12:40:05.221Z,20.13
2023-11-12T12:42:35.658Z,21.48
2023-11-12T12:45:12.030Z,21.50
2023-11-12T12:47:43.650Z,20.98
2023-11-12T12:50:17.027Z,19.67
2023-11-12T12:52:47.286Z,22.88
2023-11-12T12:55:18.727Z,23.08
2023-11-12T12:57:49.844Z,22.10
2023-11-12T13:00:23.107Z,21.45
2023-11-12T13:02:53.238Z,23.40
2023-11-12T13:05:23.033Z,23.73
2023-11-12T13:07:52.862Z,22.10
2023-11-12T13:10:22.246Z,23.30
2023-11-12T13:12:58.252Z,22.75
2023-11-12T13:15:26.734Z,23.38
2023-11-12T13:17:55.624Z,24.30
2023-11-12T13:20:26.440Z,24.00
2023-11-12T13:22:56.500Z,24.45
2023-11-12T13:25:24.396Z,23.85
2023-11-12T13:27:52.284Z,23.58
2023-11-12T13:30:20.871Z,25.33
2023-11-12T13:32:49.775Z,25.35
2023-11-12T13:35:18.109Z,28.92
2023-11-12T13:37:46.879Z,26.13
2023-11-12T13:40:17.350Z,23.67
2023-11-12T13:42:46.000Z,25.00
2023-11-12T13:45:15.480Z,23.70
2023-11-12T13:47:43.884Z,23.65
2023-11-12T13:50:15.697Z,25.17
2023-11-12T13:52:48.179Z,25.95
2023-11-12T13:55:19.791Z,24.60
2023-11-12T13:57:49.415Z,25.02
2023-11-12T14:00:18.936Z,22.92
2023-11-12T14:02:47.113Z,23.83
2023-11-12T14:05:15.018Z,26.30
2023-11-12T14:07:46.483Z,26.05
2023-11-12T14:10:19.602Z,23.40
2023-11-12T14:12:51.645Z,25.25
2023-11-12T14:15:40.791Z,26.75
2023-11-12T14:18:14.707Z,25.20
2023-11-12T14:20:42.576Z,29.08
2023-11-12T14:23:14.058Z,29.88
2023-11-12T14:25:41.570Z,29.88
2023-11-12T14:28:11.092Z,30.33
2023-11-12T14:30:41.689Z,30.42
2023-11-12T14:33:10.749Z,31.52
2023-11-12T14:35:38.527Z,30.40
2023-11-12T14:38:06.559Z,28.63
2023-11-12T14:40:34.261Z,27.17
2023-11-12T14:43:08.062Z,27.70
2023-11-12T14:45:38.402Z,29.05
2023-11-12T14:48:08.660Z,30.52
2023-11-12T14:50:36.138Z,29.00
2023-11-12T14:53:04.721Z,28.85
2023-11-12T14:55:32.387Z,28.30
2023-11-12T14:58:01.363Z,31.85
2023-11-12T15:00:29.638Z,30.45
2023-11-12T15:02:59.562Z,33.55
2023-11-12T15:05:31.772Z,31.15
2023-11-12T15:08:00.080Z,33.75
2023-11-12T15:10:29.479Z,32.70
2023-11-12T15:12:58.099Z,38.22
2023-11-12T15:15:25.870Z,40.63
2023-11-12T15:17:55.420Z,40.03
2023-11-12T15:20:23.568Z,33.42
2023-11-12T15:22:52.422Z,38.28
2023-11-12T15:25:20.901Z,40.08
2023-11-12T15:27:52.705Z,34.42
2023-11-12T15:30:21.134Z,46.22
2023-11-12T15:32:50.187Z,37.55
2023-11-12T15:35:19.758Z,36.08
2023-11-12T15:37:47.719Z,33.72
2023-11-12T15:40:20.491Z,37.03
2023-11-12T15:42:53.218Z,36.33
2023-11-12T15:45:25.746Z,40.63
2023-11-12T15:47:54.227Z,37.47
2023-11-12T15:50:31.162Z,36.63
2023-11-12T15:53:00.333Z,36.15
2023-11-12T15:55:28.262Z,35.28
2023-11-12T15:57:56.399Z,33.45
2023-11-12T16:00:25.452Z,34.45
2023-11-12T16:02:57.213Z,34.13
2023-11-12T16:05:30.998Z,34.00
2023-11-12T16:07:59.220Z,34.22
2023-11-12T16:10:27.948Z,34.70
2023-11-12T16:12:58.783Z,34.45
2023-11-12T16:15:29.469Z,32.53
2023-11-12T16:17:58.190Z,33.75
2023-11-12T16:20:25.972Z,33.92
2023-11-12T16:22:54.263Z,31.05
2023-11-12T16:25:21.967Z,32.78
2023-11-12T16:27:49.757Z,29.45
2023-11-12T16:30:17.432Z,27.27
2023-11-12T16:32:45.165Z,26.73
2023-11-12T16:35:14.365Z,26.52
2023-11-12T16:37:50.092Z,24.20
2023-11-12T16:40:23.821Z,24.10
2023-11-12T16:42:52.528Z,24.08
2023-11-12T16:45:20.561Z,22.30
2023-11-12T16:47:48.648Z,23.95
2023-11-12T16:50:19.089Z,22.45
2023-11-12T16:52:49.644Z,22.42
2023-11-12T16:55:20.678Z,23.25
2023-11-12T16:57:49.660Z,23.48
2023-11-12T17:00:19.851Z,23.45
2023-11-12T17:02:47.843Z,21.42
2023-11-12T17:05:21.954Z,22.67
2023-11-12T17:07:50.478Z,23.25
2023-11-12T17:10:19.600Z,21.42
2023-11-12T17:12:52.138Z,27.02
2023-11-12T17:15:24.792Z,20.85
2023-11-12T17:17:52.774Z,21.60
2023-11-12T17:20:21.216Z,22.50
2023-11-12T17:22:50.390Z,22.33
2023-11-12T17:25:29.444Z,23.48
2023-11-12T17:27:58.036Z,31.52
2023-11-12T17:30:26.480Z,38.38
2023-11-12T17:32:56.172Z,108.05
2023-11-12T17:35:25.281Z,45.53
2023-11-12T17:37:53.514Z,41.28
2023-11-12T17:40:21.173Z,21.65
2023-11-12T17:42:49.841Z,16.02
2023-11-12T17:45:17.473Z,13.23
2023-11-12T17:47:45.430Z,12.30
2023-11-12T17:50:13.405Z,10.45
2023-11-12T17:52:41.352Z,12.38
2023-11-12T17:55:10.049Z,12.70
2023-11-12T17:57:40.899Z,12.38
2023-11-12T18:00:10.516Z,14.25
2023-11-12T18:02:40.309Z,19.83
2023-11-12T18:05:08.724Z,24.67
2023-11-12T18:07:37.761Z,23.27
2023-11-12T18:10:06.267Z,31.75
2023-11-12T18:12:34.465Z,31.02
2023-11-12T18:15:02.006Z,27.08
2023-11-12T18:17:31.236Z,68.20
2023-11-12T18:19:59.441Z,34.88
2023-11-12T18:22:28.272Z,37.90
2023-11-12T18:24:55.840Z,36.92
2023-11-12T18:27:25.368Z,22.52
2023-11-12T18:29:56.028Z,18.02
2023-11-12T18:32:23.914Z,22.60
2023-11-12T18:34:51.857Z,20.52
2023-11-12T18:37:24.584Z,20.87
2023-11-12T18:39:52.249Z,24.52
2023-11-12T18:42:20.122Z,19.73
2023-11-12T18:44:47.975Z,19.10
2023-11-12T18:47:16.632Z,30.45
2023-11-12T18:49:48.187Z,24.95
2023-11-12T18:52:16.479Z,29.08
2023-11-12T18:54:44.544Z,25.92
2023-11-12T18:57:12.593Z,16.65
2023-11-12T18:59:41.730Z,15.00
2023-11-12T19:02:09.682Z,14.60
2023-11-12T19:04:37.328Z,13.95
2023-11-12T19:07:16.057Z,14.60
2023-11-12T19:09:47.039Z,16.00
2023-11-12T19:12:15.589Z,15.48
2023-11-12T19:14:43.333Z,17.27
2023-11-12T19:17:12.151Z,17.40
2023-11-12T19:19:41.437Z,17.27
2023-11-12T19:22:09.479Z,17.33
2023-11-12T19:24:39.127Z,21.52
2023-11-12T19:27:07.961Z,19.83
2023-11-12T19:29:35.689Z,23.02
2023-11-12T19:32:05.112Z,24.08
2023-11-12T19:34:35.517Z,23.42
2023-11-12T19:37:03.692Z,21.67
2023-11-12T19:39:31.659Z,20.13
2023-11-12T19:41:59.754Z,27.17
2023-11-12T19:44:27.574Z,22.92
2023-11-12T19:46:55.316Z,26.45
2023-11-12T19:49:22.774Z,25.20
2023-11-12T19:51:51.419Z,51.63
2023-11-12T19:54:19.949Z,22.63
2023-11-12T19:56:47.895Z,27.00
2023-11-12T19:59:15.488Z,22.20
2023-11-12T20:01:43.845Z,19.15
2023-11-12T20:04:14.998Z,19.70
2023-11-12T20:06:44.276Z,23.07
2023-11-12T20:09:12.135Z,22.40
2023-11-12T20:11:41.441Z,22.00
2023-11-12T20:14:09.020Z,26.83
2023-11-12T20:16:37.336Z,23.70
2023-11-12T20:19:07.160Z,27.17
2023-11-12T20:21:44.200Z,22.17
2023-11-12T20:24:16.856Z,22.88
2023-11-12T20:26:52.011Z,22.75
2023-11-12T20:29:23.359Z,21.95
2023-11-12T20:31:55.663Z,20.77
2023-11-12T20:34:23.975Z,23.13
2023-11-12T20:36:52.409Z,21.95
2023-11-12T20:39:21.603Z,27.05
2023-11-12T20:41:52.055Z,26.98
2023-11-12T20:44:19.765Z,22.42
2023-11-12T20:46:47.996Z,23.65
2023-11-12T20:49:17.901Z,25.42
2023-11-12T20:51:48.585Z,23.35
2023-11-12T20:54:17.461Z,25.55
2023-11-12T20:56:45.833Z,25.17
2023-11-12T20:59:17.424Z,25.65
2023-11-12T21:01:45.798Z,26.55
2023-11-12T21:04:15.440Z,25.92
2023-11-12T21:06:46.657Z,24.95
2023-11-12T21:09:14.899Z,29.57
2023-11-12T21:11:48.128Z,28.33
2023-11-12T21:14:16.867Z,26.23
2023-11-12T21:16:47.985Z,31.48
2023-11-12T21:19:15.519Z,28.85
2023-11-12T21:21:43.477Z,31.13
2023-11-12T21:24:12.030Z,24.08
2023-11-12T21:26:40.842Z,20.73
2023-11-12T21:29:10.546Z,20.65
2023-11-12T21:31:39.323Z,18.70
2023-11-12T21:34:07.233Z,19.50
2023-11-12T21:36:34.981Z,19.40
2023-11-12T21:39:02.641Z,19.73
2023-11-12T21:41:31.078Z,19.48
2023-11-12T21:43:59.043Z,19.27
2023-11-12T21:46:28.295Z,19.92
2023-11-12T21:48:56.338Z,21.65
2023-11-12T21:51:24.815Z,20.60
2023-11-12T21:53:53.253Z,24.95
2023-11-12T21:56:21.452Z,24.02
2023-11-12T21:58:50.174Z,24.45
2023-11-12T22:01:22.976Z,25.80
2023-11-12T22:03:51.771Z,30.95
2023-11-12T22:06:20.339Z,26.58
2023-11-12T22:08:48.462Z,29.67
2023-11-12T22:11:17.085Z,25.27
2023-11-12T22:13:44.513Z,26.55
2023-11-12T22:16:13.552Z,22.63
2023-11-12T22:18:41.481Z,21.63
2023-11-12T22:21:09.622Z,21.60
2023-11-12T22:23:37.613Z,19.65
2023-11-12T22:26:05.420Z,17.90
2023-11-12T22:28:33.039Z,19.10
2023-11-12T22:31:01.061Z,16.83
2023-11-12T22:33:28.789Z,22.13
2023-11-12T22:35:56.718Z,36.90
2023-11-12T22:38:24.473Z,17.25
2023-11-12T22:40:52.319Z,16.80
2023-11-12T22:43:25.610Z,18.75
2023-11-12T22:45:53.742Z,15.27
2023-11-12T22:48:21.228Z,28.13
2023-11-12T22:50:49.358Z,18.83
2023-11-12T22:53:17.069Z,15.45
2023-11-12T22:55:46.926Z,33.22
2023-11-12T22:58:16.002Z,18.02
2023-11-12T23:00:48.328Z,15.45
2023-11-12T23:03:17.259Z,13.82
2023-11-12T23:05:49.815Z,15.20
2023-11-12T23:08:17.451Z,13.25
2023-11-12T23:10:46.834Z,14.43
2023-11-12T23:13:15.815Z,15.00
2023-11-12T23:15:46.644Z,16.33
2023-11-12T23:18:14.370Z,12.85
2023-11-12T23:20:47.702Z,11.95
2023-11-12T23:23:23.086Z,26.35
2023-11-12T23:25:53.602Z,11.00
2023-11-12T23:28:21.313Z,9.80
2023-11-12T23:30:49.242Z,10.77
2023-11-12T23:33:16.823Z,9.88
2023-11-12T23:35:48.452Z,10.57
2023-11-12T23:38:15.901Z,17.27
2023-11-12T23:40:43.540Z,11.95
2023-11-12T23:43:11.217Z,11.68
2023-11-12T23:45:45.086Z,12.07
2023-11-12T23:48:12.767Z,17.77
2023-11-12T23:50:40.732Z,13.18
2023-11-12T23:53:08.428Z,24.23
2023-11-12T23:55:36.821Z,21.27
2023-11-12T23:58:05.229Z,18.70
